Terminal Aerodrome Forecast
Issued by NWS

Home | Current Version | Previous Version | Text Only | Print | Product List | Glossary On
Versions: 1 2 3 4 5 6 7 8 9 10 11 12
744
FTUS41 KBGM 241136
TAFRME
TAF
KRME 241136Z 2412/2512 12005KT P6SM OVC250
     FM241500 17007KT P6SM OVC250
     FM250200 12005KT P6SM OVC070
     FM250500 11005KT P6SM -RA OVC050
     FM250700 11008KT P6SM -RA OVC025
     FM250900 10008KT P6SM -RA OVC015=

USA.gov is the U.S. government's official web portal to all federal, state and local government web resources and services.